sensor_id;sensor_type;location;lat;lon;timestamp;temperature;humidity
22532;DHT22;11432;46.924;7.114;2022-11-20T00:01:23;5.60;1.00
22532;DHT22;11432;46.924;7.114;2022-11-20T00:03:50;5.60;1.00
22532;DHT22;11432;46.924;7.114;2022-11-20T00:06:18;5.50;1.00
22532;DHT22;11432;46.924;7.114;2022-11-20T00:08:44;5.50;1.00
22532;DHT22;11432;46.924;7.114;2022-11-20T00:11:15;5.50;1.00
22532;DHT22;11432;46.924;7.114;2022-11-20T00:13:45;5.50;1.00
22532;DHT22;11432;46.924;7.114;2022-11-20T00:16:12;5.50;1.00
22532;DHT22;11432;46.924;7.114;2022-11-20T00:18:37;5.50;1.00
22532;DHT22;11432;46.924;7.114;2022-11-20T00:21:04;5.50;1.00
22532;DHT22;11432;46.924;7.114;2022-11-20T00:23:31;5.50;1.00
22532;DHT22;11432;46.924;7.114;2022-11-20T00:26:00;5.50;1.00
22532;DHT22;11432;46.924;7.114;2022-11-20T00:28:26;5.40;1.00
22532;DHT22;11432;46.924;7.114;2022-11-20T00:30:51;5.40;1.00
22532;DHT22;11432;46.924;7.114;2022-11-20T00:33:17;5.40;1.00
22532;DHT22;11432;46.924;7.114;2022-11-20T00:35:43;5.40;1.00
22532;DHT22;11432;46.924;7.114;2022-11-20T00:38:08;5.50;1.00
22532;DHT22;11432;46.924;7.114;2022-11-20T00:40:34;5.50;1.00
22532;DHT22;11432;46.924;7.114;2022-11-20T00:42:59;5.50;1.00
22532;DHT22;11432;46.924;7.114;2022-11-20T00:45:25;5.50;1.00
22532;DHT22;11432;46.924;7.114;2022-11-20T00:47:50;5.50;1.00
22532;DHT22;11432;46.924;7.114;2022-11-20T00:50:16;5.60;1.00
22532;DHT22;11432;46.924;7.114;2022-11-20T00:52:41;5.60;1.00
22532;DHT22;11432;46.924;7.114;2022-11-20T00:55:07;5.70;1.00
22532;DHT22;11432;46.924;7.114;2022-11-20T00:57:32;5.70;1.00
22532;DHT22;11432;46.924;7.114;2022-11-20T00:59:58;5.80;1.00
22532;DHT22;11432;46.924;7.114;2022-11-20T01:02:24;5.90;1.00
22532;DHT22;11432;46.924;7.114;2022-11-20T01:04:49;6.00;1.00
22532;DHT22;11432;46.924;7.114;2022-11-20T01:07:15;6.20;1.00
22532;DHT22;11432;46.924;7.114;2022-11-20T01:09:40;6.30;1.00
22532;DHT22;11432;46.924;7.114;2022-11-20T01:12:06;6.40;1.00
22532;DHT22;11432;46.924;7.114;2022-11-20T01:14:31;6.30;1.00
22532;DHT22;11432;46.924;7.114;2022-11-20T01:16:57;6.20;1.00
22532;DHT22;11432;46.924;7.114;2022-11-20T01:19:23;6.10;1.00
22532;DHT22;11432;46.924;7.114;2022-11-20T01:21:51;6.10;1.00
22532;DHT22;11432;46.924;7.114;2022-11-20T01:24:18;6.10;1.00
22532;DHT22;11432;46.924;7.114;2022-11-20T01:26:46;6.10;1.00
22532;DHT22;11432;46.924;7.114;2022-11-20T01:29:15;6.10;1.00
22532;DHT22;11432;46.924;7.114;2022-11-20T01:31:41;6.10;1.00
22532;DHT22;11432;46.924;7.114;2022-11-20T01:34:11;6.10;1.00
22532;DHT22;11432;46.924;7.114;2022-11-20T01:36:38;6.10;1.00
22532;DHT22;11432;46.924;7.114;2022-11-20T01:39:07;6.10;1.00
22532;DHT22;11432;46.924;7.114;2022-11-20T01:41:35;6.10;1.00
22532;DHT22;11432;46.924;7.114;2022-11-20T01:44:22;6.10;1.00
22532;DHT22;11432;46.924;7.114;2022-11-20T01:46:57;6.10;1.00
22532;DHT22;11432;46.924;7.114;2022-11-20T01:49:29;6.10;1.00
22532;DHT22;11432;46.924;7.114;2022-11-20T01:52:01;6.10;1.00
22532;DHT22;11432;46.924;7.114;2022-11-20T01:54:40;6.10;1.00
22532;DHT22;11432;46.924;7.114;2022-11-20T01:57:10;6.10;1.00
22532;DHT22;11432;46.924;7.114;2022-11-20T01:59:40;6.10;1.00
22532;DHT22;11432;46.924;7.114;2022-11-20T02:02:07;6.10;1.00
22532;DHT22;11432;46.924;7.114;2022-11-20T02:04:32;6.10;1.00
22532;DHT22;11432;46.924;7.114;2022-11-20T02:07:02;6.10;1.00
22532;DHT22;11432;46.924;7.114;2022-11-20T02:09:30;6.10;1.00
22532;DHT22;11432;46.924;7.114;2022-11-20T02:11:56;6.00;1.00
22532;DHT22;11432;46.924;7.114;2022-11-20T02:14:23;6.00;1.00
22532;DHT22;11432;46.924;7.114;2022-11-20T02:16:49;6.00;1.00
22532;DHT22;11432;46.924;7.114;2022-11-20T02:19:26;6.00;1.00
22532;DHT22;11432;46.924;7.114;2022-11-20T02:22:12;6.00;1.00
22532;DHT22;11432;46.924;7.114;2022-11-20T02:24:39;6.00;1.00
22532;DHT22;11432;46.924;7.114;2022-11-20T02:27:12;5.90;1.00
22532;DHT22;11432;46.924;7.114;2022-11-20T02:29:50;5.90;1.00
22532;DHT22;11432;46.924;7.114;2022-11-20T02:32:39;5.90;1.00
22532;DHT22;11432;46.924;7.114;2022-11-20T02:37:48;5.80;1.00
22532;DHT22;11432;46.924;7.114;2022-11-20T02:40:15;5.70;1.00
22532;DHT22;11432;46.924;7.114;2022-11-20T02:42:40;5.70;1.00
22532;DHT22;11432;46.924;7.114;2022-11-20T02:45:07;5.80;1.00
22532;DHT22;11432;46.924;7.114;2022-11-20T02:47:33;5.80;1.00
22532;DHT22;11432;46.924;7.114;2022-11-20T02:49:59;5.80;1.00
22532;DHT22;11432;46.924;7.114;2022-11-20T02:52:25;5.80;1.00
22532;DHT22;11432;46.924;7.114;2022-11-20T02:54:51;5.90;1.00
22532;DHT22;11432;46.924;7.114;2022-11-20T02:57:17;5.90;1.00
22532;DHT22;11432;46.924;7.114;2022-11-20T02:59:43;5.80;1.00
22532;DHT22;11432;46.924;7.114;2022-11-20T03:02:09;5.80;1.00
22532;DHT22;11432;46.924;7.114;2022-11-20T03:04:34;5.80;1.00
22532;DHT22;11432;46.924;7.114;2022-11-20T03:07:00;5.90;1.00
22532;DHT22;11432;46.924;7.114;2022-11-20T03:09:26;5.90;1.00
22532;DHT22;11432;46.924;7.114;2022-11-20T03:11:51;5.90;1.00
22532;DHT22;11432;46.924;7.114;2022-11-20T03:14:17;5.90;1.00
22532;DHT22;11432;46.924;7.114;2022-11-20T03:16:43;5.90;12.20
22532;DHT22;11432;46.924;7.114;2022-11-20T03:19:08;5.90;24.70
22532;DHT22;11432;46.924;7.114;2022-11-20T03:21:34;5.80;25.50
22532;DHT22;11432;46.924;7.114;2022-11-20T03:24:00;5.80;41.80
22532;DHT22;11432;46.924;7.114;2022-11-20T03:26:27;5.80;37.40
22532;DHT22;11432;46.924;7.114;2022-11-20T03:28:55;5.70;56.10
22532;DHT22;11432;46.924;7.114;2022-11-20T03:31:27;5.60;64.90
22532;DHT22;11432;46.924;7.114;2022-11-20T03:33:53;5.50;99.90
22532;DHT22;11432;46.924;7.114;2022-11-20T03:36:20;5.40;99.90
22532;DHT22;11432;46.924;7.114;2022-11-20T03:38:46;5.40;99.90
22532;DHT22;11432;46.924;7.114;2022-11-20T03:41:16;5.40;99.90
22532;DHT22;11432;46.924;7.114;2022-11-20T03:43:42;5.40;99.90
22532;DHT22;11432;46.924;7.114;2022-11-20T03:46:08;5.30;99.90
22532;DHT22;11432;46.924;7.114;2022-11-20T03:48:33;5.30;99.90
22532;DHT22;11432;46.924;7.114;2022-11-20T03:51:10;5.20;99.90
22532;DHT22;11432;46.924;7.114;2022-11-20T03:53:36;5.20;99.90
22532;DHT22;11432;46.924;7.114;2022-11-20T03:56:02;5.20;99.90
22532;DHT22;11432;46.924;7.114;2022-11-20T03:58:27;5.30;99.90
22532;DHT22;11432;46.924;7.114;2022-11-20T04:00:53;5.30;99.90
22532;DHT22;11432;46.924;7.114;2022-11-20T04:03:18;5.30;99.90
22532;DHT22;11432;46.924;7.114;2022-11-20T04:05:44;5.30;99.90
22532;DHT22;11432;46.924;7.114;2022-11-20T04:08:09;5.30;72.20
22532;DHT22;11432;46.924;7.114;2022-11-20T04:10:35;5.40;1.00
22532;DHT22;11432;46.924;7.114;2022-11-20T04:13:01;5.50;1.00
22532;DHT22;11432;46.924;7.114;2022-11-20T04:15:26;5.50;1.00
22532;DHT22;11432;46.924;7.114;2022-11-20T04:17:53;5.60;1.00
22532;DHT22;11432;46.924;7.114;2022-11-20T04:20:18;5.60;1.00
22532;DHT22;11432;46.924;7.114;2022-11-20T04:22:44;5.60;1.00
22532;DHT22;11432;46.924;7.114;2022-11-20T04:25:10;5.70;1.00
22532;DHT22;11432;46.924;7.114;2022-11-20T04:27:36;5.70;1.00
22532;DHT22;11432;46.924;7.114;2022-11-20T04:30:01;5.70;1.00
22532;DHT22;11432;46.924;7.114;2022-11-20T04:32:27;5.80;1.00
22532;DHT22;11432;46.924;7.114;2022-11-20T04:34:52;5.80;1.00
22532;DHT22;11432;46.924;7.114;2022-11-20T04:37:18;5.80;1.00
22532;DHT22;11432;46.924;7.114;2022-11-20T04:39:44;5.80;1.00
22532;DHT22;11432;46.924;7.114;2022-11-20T04:42:10;5.80;1.00
22532;DHT22;11432;46.924;7.114;2022-11-20T04:44:54;5.80;1.00
22532;DHT22;11432;46.924;7.114;2022-11-20T04:47:20;5.80;1.00
22532;DHT22;11432;46.924;7.114;2022-11-20T04:49:46;5.80;1.00
22532;DHT22;11432;46.924;7.114;2022-11-20T04:52:12;5.80;1.00
22532;DHT22;11432;46.924;7.114;2022-11-20T04:54:37;5.80;1.00
22532;DHT22;11432;46.924;7.114;2022-11-20T04:57:03;5.80;1.00
22532;DHT22;11432;46.924;7.114;2022-11-20T04:59:28;5.80;1.00
22532;DHT22;11432;46.924;7.114;2022-11-20T05:01:54;5.90;1.00
22532;DHT22;11432;46.924;7.114;2022-11-20T05:04:20;5.90;1.00
22532;DHT22;11432;46.924;7.114;2022-11-20T05:06:45;6.00;1.00
22532;DHT22;11432;46.924;7.114;2022-11-20T05:09:12;6.00;1.00
22532;DHT22;11432;46.924;7.114;2022-11-20T05:11:38;6.00;1.00
22532;DHT22;11432;46.924;7.114;2022-11-20T05:14:03;6.00;1.00
22532;DHT22;11432;46.924;7.114;2022-11-20T05:16:29;6.00;1.00
22532;DHT22;11432;46.924;7.114;2022-11-20T05:18:54;6.00;1.00
22532;DHT22;11432;46.924;7.114;2022-11-20T05:21:20;6.00;1.00
22532;DHT22;11432;46.924;7.114;2022-11-20T05:23:46;6.00;1.00
22532;DHT22;11432;46.924;7.114;2022-11-20T05:26:16;6.00;1.00
22532;DHT22;11432;46.924;7.114;2022-11-20T05:28:41;6.00;1.00
22532;DHT22;11432;46.924;7.114;2022-11-20T05:31:09;6.00;1.00
22532;DHT22;11432;46.924;7.114;2022-11-20T05:33:35;6.00;1.00
22532;DHT22;11432;46.924;7.114;2022-11-20T05:36:03;6.00;1.00
22532;DHT22;11432;46.924;7.114;2022-11-20T05:38:28;6.00;1.00
22532;DHT22;11432;46.924;7.114;2022-11-20T05:40:54;5.90;1.00
22532;DHT22;11432;46.924;7.114;2022-11-20T05:43:20;5.90;1.00
22532;DHT22;11432;46.924;7.114;2022-11-20T05:45:53;5.90;1.00
22532;DHT22;11432;46.924;7.114;2022-11-20T05:48:19;5.90;1.00
22532;DHT22;11432;46.924;7.114;2022-11-20T05:50:44;5.90;1.00
22532;DHT22;11432;46.924;7.114;2022-11-20T05:53:10;5.90;1.00
22532;DHT22;11432;46.924;7.114;2022-11-20T05:55:36;5.90;1.00
22532;DHT22;11432;46.924;7.114;2022-11-20T05:58:01;5.80;1.00
22532;DHT22;11432;46.924;7.114;2022-11-20T06:00:27;5.80;1.00
22532;DHT22;11432;46.924;7.114;2022-11-20T06:02:52;5.80;1.00
22532;DHT22;11432;46.924;7.114;2022-11-20T06:05:18;5.80;1.00
22532;DHT22;11432;46.924;7.114;2022-11-20T06:07:43;5.80;1.00
22532;DHT22;11432;46.924;7.114;2022-11-20T06:10:09;5.80;1.00
22532;DHT22;11432;46.924;7.114;2022-11-20T06:12:35;5.80;1.00
22532;DHT22;11432;46.924;7.114;2022-11-20T06:15:00;5.80;1.00
22532;DHT22;11432;46.924;7.114;2022-11-20T06:17:26;5.80;1.00
22532;DHT22;11432;46.924;7.114;2022-11-20T06:19:52;5.80;1.00
22532;DHT22;11432;46.924;7.114;2022-11-20T06:22:17;5.80;1.00
22532;DHT22;11432;46.924;7.114;2022-11-20T06:24:43;5.80;1.00
22532;DHT22;11432;46.924;7.114;2022-11-20T06:27:08;5.80;1.00
22532;DHT22;11432;46.924;7.114;2022-11-20T06:29:34;5.80;1.00
22532;DHT22;11432;46.924;7.114;2022-11-20T06:32:00;5.80;1.00
22532;DHT22;11432;46.924;7.114;2022-11-20T06:34:26;5.80;1.00
22532;DHT22;11432;46.924;7.114;2022-11-20T06:36:51;5.80;1.00
22532;DHT22;11432;46.924;7.114;2022-11-20T06:39:17;5.70;1.00
22532;DHT22;11432;46.924;7.114;2022-11-20T06:41:43;5.70;1.00
22532;DHT22;11432;46.924;7.114;2022-11-20T06:44:08;5.60;1.00
22532;DHT22;11432;46.924;7.114;2022-11-20T06:46:34;5.60;1.00
22532;DHT22;11432;46.924;7.114;2022-11-20T06:48:59;5.50;1.00
22532;DHT22;11432;46.924;7.114;2022-11-20T06:51:25;5.50;1.00
22532;DHT22;11432;46.924;7.114;2022-11-20T06:53:51;5.50;1.00
22532;DHT22;11432;46.924;7.114;2022-11-20T06:56:16;5.50;1.00
22532;DHT22;11432;46.924;7.114;2022-11-20T06:58:42;5.40;1.00
22532;DHT22;11432;46.924;7.114;2022-11-20T07:01:10;5.50;1.00
22532;DHT22;11432;46.924;7.114;2022-11-20T07:03:36;5.50;1.00
22532;DHT22;11432;46.924;7.114;2022-11-20T07:06:03;5.50;1.00
22532;DHT22;11432;46.924;7.114;2022-11-20T07:08:29;5.50;10.60
22532;DHT22;11432;46.924;7.114;2022-11-20T07:11:02;5.50;17.50
22532;DHT22;11432;46.924;7.114;2022-11-20T07:13:29;5.50;1.00
22532;DHT22;11432;46.924;7.114;2022-11-20T07:15:58;5.60;1.00
22532;DHT22;11432;46.924;7.114;2022-11-20T07:18:24;5.60;1.00
22532;DHT22;11432;46.924;7.114;2022-11-20T07:20:49;5.70;1.00
22532;DHT22;11432;46.924;7.114;2022-11-20T07:23:15;5.80;1.00
22532;DHT22;11432;46.924;7.114;2022-11-20T07:25:40;5.80;1.00
22532;DHT22;11432;46.924;7.114;2022-11-20T07:28:06;5.80;1.00
22532;DHT22;11432;46.924;7.114;2022-11-20T07:30:32;5.80;1.00
22532;DHT22;11432;46.924;7.114;2022-11-20T07:32:57;5.80;1.00
22532;DHT22;11432;46.924;7.114;2022-11-20T07:35:24;5.80;1.00
22532;DHT22;11432;46.924;7.114;2022-11-20T07:37:50;5.80;1.00
22532;DHT22;11432;46.924;7.114;2022-11-20T07:40:17;5.80;1.00
22532;DHT22;11432;46.924;7.114;2022-11-20T07:42:53;5.80;1.00
22532;DHT22;11432;46.924;7.114;2022-11-20T07:45:20;5.80;1.00
22532;DHT22;11432;46.924;7.114;2022-11-20T07:47:46;5.80;1.00
22532;DHT22;11432;46.924;7.114;2022-11-20T07:50:12;5.90;1.00
22532;DHT22;11432;46.924;7.114;2022-11-20T07:52:38;5.90;1.00
22532;DHT22;11432;46.924;7.114;2022-11-20T07:55:04;6.00;1.00
22532;DHT22;11432;46.924;7.114;2022-11-20T07:57:30;6.00;1.00
22532;DHT22;11432;46.924;7.114;2022-11-20T07:59:56;6.00;1.00
22532;DHT22;11432;46.924;7.114;2022-11-20T08:02:21;6.10;1.00
22532;DHT22;11432;46.924;7.114;2022-11-20T08:04:47;6.10;1.00
22532;DHT22;11432;46.924;7.114;2022-11-20T08:07:12;6.10;1.00
22532;DHT22;11432;46.924;7.114;2022-11-20T08:09:38;6.10;1.00
22532;DHT22;11432;46.924;7.114;2022-11-20T08:12:04;6.20;1.00
22532;DHT22;11432;46.924;7.114;2022-11-20T08:15:08;6.20;1.00
22532;DHT22;11432;46.924;7.114;2022-11-20T08:17:34;6.20;1.00
22532;DHT22;11432;46.924;7.114;2022-11-20T08:19:59;6.30;1.00
22532;DHT22;11432;46.924;7.114;2022-11-20T08:22:25;6.30;1.00
22532;DHT22;11432;46.924;7.114;2022-11-20T08:24:51;6.30;1.00
22532;DHT22;11432;46.924;7.114;2022-11-20T08:27:16;6.30;1.00
22532;DHT22;11432;46.924;7.114;2022-11-20T08:29:42;6.30;1.00
22532;DHT22;11432;46.924;7.114;2022-11-20T08:32:07;6.30;1.00
22532;DHT22;11432;46.924;7.114;2022-11-20T08:34:33;6.40;1.00
22532;DHT22;11432;46.924;7.114;2022-11-20T08:36:58;6.40;1.00
22532;DHT22;11432;46.924;7.114;2022-11-20T08:39:24;6.50;1.00
22532;DHT22;11432;46.924;7.114;2022-11-20T08:41:50;6.60;1.00
22532;DHT22;11432;46.924;7.114;2022-11-20T08:44:15;6.70;1.00
22532;DHT22;11432;46.924;7.114;2022-11-20T08:46:42;6.80;1.00
22532;DHT22;11432;46.924;7.114;2022-11-20T08:49:10;6.80;1.00
22532;DHT22;11432;46.924;7.114;2022-11-20T08:51:36;6.80;1.00
22532;DHT22;11432;46.924;7.114;2022-11-20T08:54:03;6.90;1.00
22532;DHT22;11432;46.924;7.114;2022-11-20T08:56:28;6.90;1.00
22532;DHT22;11432;46.924;7.114;2022-11-20T08:58:55;7.00;1.00
22532;DHT22;11432;46.924;7.114;2022-11-20T09:01:22;7.00;1.00
22532;DHT22;11432;46.924;7.114;2022-11-20T09:03:48;7.10;1.00
22532;DHT22;11432;46.924;7.114;2022-11-20T09:06:14;7.10;1.00
22532;DHT22;11432;46.924;7.114;2022-11-20T09:08:40;7.10;1.00
22532;DHT22;11432;46.924;7.114;2022-11-20T09:11:06;7.10;1.00
22532;DHT22;11432;46.924;7.114;2022-11-20T09:13:33;7.20;1.00
22532;DHT22;11432;46.924;7.114;2022-11-20T09:16:07;7.30;1.00
22532;DHT22;11432;46.924;7.114;2022-11-20T09:18:34;7.30;1.00
22532;DHT22;11432;46.924;7.114;2022-11-20T09:21:04;7.40;1.00
22532;DHT22;11432;46.924;7.114;2022-11-20T09:23:37;7.40;1.00
22532;DHT22;11432;46.924;7.114;2022-11-20T09:26:10;7.30;1.00
22532;DHT22;11432;46.924;7.114;2022-11-20T09:28:36;7.30;1.00
22532;DHT22;11432;46.924;7.114;2022-11-20T09:31:06;7.30;1.00
22532;DHT22;11432;46.924;7.114;2022-11-20T09:33:32;7.30;1.00
22532;DHT22;11432;46.924;7.114;2022-11-20T09:35:57;7.20;1.00
22532;DHT22;11432;46.924;7.114;2022-11-20T09:38:23;7.20;1.00
22532;DHT22;11432;46.924;7.114;2022-11-20T09:40:57;7.30;1.00
22532;DHT22;11432;46.924;7.114;2022-11-20T09:43:26;7.40;1.00
22532;DHT22;11432;46.924;7.114;2022-11-20T09:46:28;7.50;1.00
22532;DHT22;11432;46.924;7.114;2022-11-20T09:52:05;7.60;1.00
22532;DHT22;11432;46.924;7.114;2022-11-20T09:54:39;7.80;1.00
22532;DHT22;11432;46.924;7.114;2022-11-20T09:57:11;8.10;73.00
22532;DHT22;11432;46.924;7.114;2022-11-20T09:59:44;9.10;86.90
22532;DHT22;11432;46.924;7.114;2022-11-20T10:11:00;10.60;82.30
22532;DHT22;11432;46.924;7.114;2022-11-20T10:19:59;11.10;92.00
22532;DHT22;11432;46.924;7.114;2022-11-20T10:25:20;11.20;88.50
22532;DHT22;11432;46.924;7.114;2022-11-20T10:30:25;11.20;85.50
22532;DHT22;11432;46.924;7.114;2022-11-20T10:32:54;11.40;81.10
22532;DHT22;11432;46.924;7.114;2022-11-20T10:35:45;11.70;84.20
22532;DHT22;11432;46.924;7.114;2022-11-20T10:38:21;11.90;84.20
22532;DHT22;11432;46.924;7.114;2022-11-20T10:41:01;13.00;78.70
22532;DHT22;11432;46.924;7.114;2022-11-20T10:46:43;13.50;76.70
22532;DHT22;11432;46.924;7.114;2022-11-20T10:49:18;13.50;74.50
22532;DHT22;11432;46.924;7.114;2022-11-20T10:52:54;13.80;78.70
22532;DHT22;11432;46.924;7.114;2022-11-20T10:54:51;14.80;78.50
22532;DHT22;11432;46.924;7.114;2022-11-20T10:57:48;15.40;68.70
22532;DHT22;11432;46.924;7.114;2022-11-20T11:00:17;15.30;65.10
22532;DHT22;11432;46.924;7.114;2022-11-20T11:02:48;15.40;63.10
22532;DHT22;11432;46.924;7.114;2022-11-20T11:05:25;14.70;67.10
22532;DHT22;11432;46.924;7.114;2022-11-20T11:07:56;14.90;62.20
22532;DHT22;11432;46.924;7.114;2022-11-20T11:10:51;13.70;62.30
22532;DHT22;11432;46.924;7.114;2022-11-20T11:13:25;13.20;60.60
22532;DHT22;11432;46.924;7.114;2022-11-20T11:15:52;12.10;63.50
22532;DHT22;11432;46.924;7.114;2022-11-20T11:18:38;11.00;66.10
22532;DHT22;11432;46.924;7.114;2022-11-20T11:21:05;10.10;66.50
22532;DHT22;11432;46.924;7.114;2022-11-20T11:25:59;9.20;29.10
22532;DHT22;11432;46.924;7.114;2022-11-20T11:28:26;9.00;8.10
22532;DHT22;11432;46.924;7.114;2022-11-20T11:30:53;8.80;1.00
22532;DHT22;11432;46.924;7.114;2022-11-20T11:33:30;8.60;1.00
22532;DHT22;11432;46.924;7.114;2022-11-20T11:36:19;8.60;1.00
22532;DHT22;11432;46.924;7.114;2022-11-20T11:38:51;9.30;1.00
22532;DHT22;11432;46.924;7.114;2022-11-20T11:41:28;11.20;1.00
22532;DHT22;11432;46.924;7.114;2022-11-20T11:43:55;12.70;1.00
22532;DHT22;11432;46.924;7.114;2022-11-20T11:46:49;14.30;20.10
22532;DHT22;11432;46.924;7.114;2022-11-20T11:49:18;14.00;28.10
22532;DHT22;11432;46.924;7.114;2022-11-20T11:52:04;14.60;17.40
22532;DHT22;11432;46.924;7.114;2022-11-20T11:54:53;14.90;22.20
22532;DHT22;11432;46.924;7.114;2022-11-20T11:57:28;14.10;23.10
22532;DHT22;11432;46.924;7.114;2022-11-20T12:07:42;14.50;22.60
22532;DHT22;11432;46.924;7.114;2022-11-20T12:12:48;16.10;16.50
22532;DHT22;11432;46.924;7.114;2022-11-20T12:15:30;16.30;15.50
22532;DHT22;11432;46.924;7.114;2022-11-20T12:17:56;14.50;20.50
22532;DHT22;11432;46.924;7.114;2022-11-20T12:20:35;14.00;20.60
22532;DHT22;11432;46.924;7.114;2022-11-20T12:23:17;13.50;20.10
22532;DHT22;11432;46.924;7.114;2022-11-20T12:25:52;14.00;17.90
22532;DHT22;11432;46.924;7.114;2022-11-20T12:33:58;15.20;17.60
22532;DHT22;11432;46.924;7.114;2022-11-20T12:36:44;14.60;19.20
22532;DHT22;11432;46.924;7.114;2022-11-20T12:39:26;14.40;13.50
22532;DHT22;11432;46.924;7.114;2022-11-20T12:57:24;14.90;23.80
22532;DHT22;11432;46.924;7.114;2022-11-20T13:00:06;14.50;20.70
22532;DHT22;11432;46.924;7.114;2022-11-20T13:05:55;16.30;15.20
22532;DHT22;11432;46.924;7.114;2022-11-20T13:08:35;14.80;18.60
22532;DHT22;11432;46.924;7.114;2022-11-20T13:11:18;13.50;17.50
22532;DHT22;11432;46.924;7.114;2022-11-20T13:16:52;13.20;17.00
22532;DHT22;11432;46.924;7.114;2022-11-20T13:19:20;14.50;13.10
22532;DHT22;11432;46.924;7.114;2022-11-20T13:21:48;15.00;14.40
22532;DHT22;11432;46.924;7.114;2022-11-20T13:29:34;13.60;18.50
22532;DHT22;11432;46.924;7.114;2022-11-20T13:34:38;11.70;20.80
22532;DHT22;11432;46.924;7.114;2022-11-20T13:37:04;10.90;22.10
22532;DHT22;11432;46.924;7.114;2022-11-20T13:39:35;10.60;18.80
22532;DHT22;11432;46.924;7.114;2022-11-20T13:42:23;10.60;23.10
22532;DHT22;11432;46.924;7.114;2022-11-20T13:44:54;10.40;9.20
22532;DHT22;11432;46.924;7.114;2022-11-20T13:47:21;10.30;16.30
22532;DHT22;11432;46.924;7.114;2022-11-20T13:49:48;10.40;1.00
22532;DHT22;11432;46.924;7.114;2022-11-20T13:58:12;10.30;1.00
22532;DHT22;11432;46.924;7.114;2022-11-20T14:01:21;10.20;1.00
22532;DHT22;11432;46.924;7.114;2022-11-20T14:03:38;10.00;1.00
22532;DHT22;11432;46.924;7.114;2022-11-20T14:06:13;10.00;1.00
22532;DHT22;11432;46.924;7.114;2022-11-20T14:11:22;10.10;1.00
22532;DHT22;11432;46.924;7.114;2022-11-20T14:16:21;10.00;1.00
22532;DHT22;11432;46.924;7.114;2022-11-20T14:18:47;10.10;1.00
22532;DHT22;11432;46.924;7.114;2022-11-20T14:21:25;10.00;1.00
22532;DHT22;11432;46.924;7.114;2022-11-20T14:24:04;10.10;1.00
22532;DHT22;11432;46.924;7.114;2022-11-20T14:26:30;10.10;1.00
22532;DHT22;11432;46.924;7.114;2022-11-20T14:28:56;10.10;1.00
22532;DHT22;11432;46.924;7.114;2022-11-20T14:31:24;10.00;1.00
22532;DHT22;11432;46.924;7.114;2022-11-20T14:33:52;9.80;1.00
22532;DHT22;11432;46.924;7.114;2022-11-20T14:36:20;9.70;1.00
22532;DHT22;11432;46.924;7.114;2022-11-20T14:38:46;9.60;1.00
22532;DHT22;11432;46.924;7.114;2022-11-20T14:41:23;9.50;1.00
22532;DHT22;11432;46.924;7.114;2022-11-20T14:43:54;9.50;1.00
22532;DHT22;11432;46.924;7.114;2022-11-20T14:46:21;9.50;1.00
22532;DHT22;11432;46.924;7.114;2022-11-20T14:48:55;9.40;1.00
22532;DHT22;11432;46.924;7.114;2022-11-20T14:51:32;9.30;1.00
22532;DHT22;11432;46.924;7.114;2022-11-20T14:54:17;9.40;1.00
22532;DHT22;11432;46.924;7.114;2022-11-20T14:57:03;9.40;1.00
22532;DHT22;11432;46.924;7.114;2022-11-20T14:59:31;9.20;1.00
22532;DHT22;11432;46.924;7.114;2022-11-20T15:02:01;9.10;1.00
22532;DHT22;11432;46.924;7.114;2022-11-20T15:04:27;9.10;1.00
22532;DHT22;11432;46.924;7.114;2022-11-20T15:06:55;9.00;1.00
22532;DHT22;11432;46.924;7.114;2022-11-20T15:09:21;8.90;1.00
22532;DHT22;11432;46.924;7.114;2022-11-20T15:12:16;8.80;1.00
22532;DHT22;11432;46.924;7.114;2022-11-20T15:14:41;8.70;1.00
22532;DHT22;11432;46.924;7.114;2022-11-20T15:17:09;8.70;1.00
22532;DHT22;11432;46.924;7.114;2022-11-20T15:19:36;8.70;1.00
22532;DHT22;11432;46.924;7.114;2022-11-20T15:22:02;8.70;1.00
22532;DHT22;11432;46.924;7.114;2022-11-20T15:24:27;8.70;1.00
22532;DHT22;11432;46.924;7.114;2022-11-20T15:26:53;8.60;1.00
22532;DHT22;11432;46.924;7.114;2022-11-20T15:29:19;8.60;1.00
22532;DHT22;11432;46.924;7.114;2022-11-20T15:31:46;8.60;1.00
22532;DHT22;11432;46.924;7.114;2022-11-20T15:34:12;8.60;1.00
22532;DHT22;11432;46.924;7.114;2022-11-20T15:36:39;8.60;1.00
22532;DHT22;11432;46.924;7.114;2022-11-20T15:39:05;8.50;1.00
22532;DHT22;11432;46.924;7.114;2022-11-20T15:41:33;8.50;1.00
22532;DHT22;11432;46.924;7.114;2022-11-20T15:43:59;8.50;1.00
22532;DHT22;11432;46.924;7.114;2022-11-20T15:46:30;8.40;1.00
22532;DHT22;11432;46.924;7.114;2022-11-20T15:48:59;8.40;1.00
22532;DHT22;11432;46.924;7.114;2022-11-20T15:51:36;8.30;1.00
22532;DHT22;11432;46.924;7.114;2022-11-20T15:54:11;8.20;1.00
22532;DHT22;11432;46.924;7.114;2022-11-20T15:56:37;8.20;1.00
22532;DHT22;11432;46.924;7.114;2022-11-20T15:59:03;8.10;1.00
22532;DHT22;11432;46.924;7.114;2022-11-20T16:01:28;8.10;1.00
22532;DHT22;11432;46.924;7.114;2022-11-20T16:03:54;8.10;1.00
22532;DHT22;11432;46.924;7.114;2022-11-20T16:06:20;8.10;1.00
22532;DHT22;11432;46.924;7.114;2022-11-20T16:08:45;8.10;1.00
22532;DHT22;11432;46.924;7.114;2022-11-20T16:11:13;8.00;1.00
22532;DHT22;11432;46.924;7.114;2022-11-20T16:13:39;7.90;1.00
22532;DHT22;11432;46.924;7.114;2022-11-20T16:16:29;7.90;1.00
22532;DHT22;11432;46.924;7.114;2022-11-20T16:18:56;7.90;1.00
22532;DHT22;11432;46.924;7.114;2022-11-20T16:21:21;7.90;1.00
22532;DHT22;11432;46.924;7.114;2022-11-20T16:23:53;7.90;1.00
22532;DHT22;11432;46.924;7.114;2022-11-20T16:26:18;7.90;1.00
22532;DHT22;11432;46.924;7.114;2022-11-20T16:28:46;7.90;1.00
22532;DHT22;11432;46.924;7.114;2022-11-20T16:31:16;7.90;1.00
22532;DHT22;11432;46.924;7.114;2022-11-20T16:33:42;7.90;1.00
22532;DHT22;11432;46.924;7.114;2022-11-20T16:36:13;7.90;1.00
22532;DHT22;11432;46.924;7.114;2022-11-20T16:38:39;7.90;1.00
22532;DHT22;11432;46.924;7.114;2022-11-20T16:41:05;7.90;1.00
22532;DHT22;11432;46.924;7.114;2022-11-20T16:43:31;7.90;1.00
22532;DHT22;11432;46.924;7.114;2022-11-20T16:45:57;7.90;1.00
22532;DHT22;11432;46.924;7.114;2022-11-20T16:48:22;7.90;1.00
22532;DHT22;11432;46.924;7.114;2022-11-20T16:50:51;7.90;1.00
22532;DHT22;11432;46.924;7.114;2022-11-20T16:53:21;7.90;1.00
22532;DHT22;11432;46.924;7.114;2022-11-20T16:55:47;7.90;1.00
22532;DHT22;11432;46.924;7.114;2022-11-20T16:58:13;7.90;1.00
22532;DHT22;11432;46.924;7.114;2022-11-20T17:00:39;7.90;1.00
22532;DHT22;11432;46.924;7.114;2022-11-20T17:03:05;7.90;99.90
22532;DHT22;11432;46.924;7.114;2022-11-20T17:05:32;7.80;99.90
22532;DHT22;11432;46.924;7.114;2022-11-20T17:07:59;7.80;99.90
22532;DHT22;11432;46.924;7.114;2022-11-20T17:10:25;7.70;99.90
22532;DHT22;11432;46.924;7.114;2022-11-20T17:12:50;7.80;99.90
22532;DHT22;11432;46.924;7.114;2022-11-20T17:15:16;7.80;99.90
22532;DHT22;11432;46.924;7.114;2022-11-20T17:17:42;7.80;99.90
22532;DHT22;11432;46.924;7.114;2022-11-20T17:20:08;7.80;99.90
22532;DHT22;11432;46.924;7.114;2022-11-20T17:22:33;7.80;99.90
22532;DHT22;11432;46.924;7.114;2022-11-20T17:24:59;7.80;99.90
22532;DHT22;11432;46.924;7.114;2022-11-20T17:27:25;7.90;99.90
22532;DHT22;11432;46.924;7.114;2022-11-20T17:29:51;7.90;99.90
22532;DHT22;11432;46.924;7.114;2022-11-20T17:32:19;8.00;99.90
22532;DHT22;11432;46.924;7.114;2022-11-20T17:34:45;8.00;99.90